sensor_id;sensor_type;location;lat;lon;timestamp;pressure;altitude;pressure_sealevel;temperature;humidity
16613;BME280;8419;52.358;9.752;2023-02-15T00:02:01;102319.00;;;13.42;41.43
16613;BME280;8419;52.358;9.752;2023-02-15T00:04:47;102325.00;;;13.49;41.34
16613;BME280;8419;52.358;9.752;2023-02-15T00:07:32;102317.00;;;13.52;41.37
16613;BME280;8419;52.358;9.752;2023-02-15T00:10:18;102317.00;;;13.55;41.36
16613;BME280;8419;52.358;9.752;2023-02-15T00:13:04;102311.00;;;13.59;41.36
16613;BME280;8419;52.358;9.752;2023-02-15T00:15:49;102307.00;;;13.63;41.30
16613;BME280;8419;52.358;9.752;2023-02-15T00:18:35;102302.00;;;13.65;41.27
16613;BME280;8419;52.358;9.752;2023-02-15T00:21:22;102302.00;;;13.68;41.26
16613;BME280;8419;52.358;9.752;2023-02-15T00:24:09;102299.00;;;13.69;41.21
16613;BME280;8419;52.358;9.752;2023-02-15T00:26:55;102300.00;;;13.67;41.22
16613;BME280;8419;52.358;9.752;2023-02-15T00:29:41;102297.00;;;13.62;41.28
16613;BME280;8419;52.358;9.752;2023-02-15T00:32:28;102295.00;;;13.61;41.24
16613;BME280;8419;52.358;9.752;2023-02-15T00:35:13;102290.00;;;13.58;41.23
16613;BME280;8419;52.358;9.752;2023-02-15T00:37:59;102285.00;;;13.55;41.22
16613;BME280;8419;52.358;9.752;2023-02-15T00:40:44;102284.00;;;13.50;41.23
16613;BME280;8419;52.358;9.752;2023-02-15T00:43:36;102285.00;;;13.43;41.26
16613;BME280;8419;52.358;9.752;2023-02-15T00:46:22;102285.00;;;13.39;41.30
16613;BME280;8419;52.358;9.752;2023-02-15T00:49:08;102279.00;;;13.39;41.26
16613;BME280;8419;52.358;9.752;2023-02-15T00:51:54;102274.00;;;13.40;41.17
16613;BME280;8419;52.358;9.752;2023-02-15T00:54:39;102278.00;;;13.42;41.21
16613;BME280;8419;52.358;9.752;2023-02-15T00:57:25;102271.00;;;13.44;41.23
16613;BME280;8419;52.358;9.752;2023-02-15T01:00:13;102267.00;;;13.48;41.25
16613;BME280;8419;52.358;9.752;2023-02-15T01:02:59;102277.00;;;13.50;41.24
16613;BME280;8419;52.358;9.752;2023-02-15T01:05:45;102274.00;;;13.53;41.21
16613;BME280;8419;52.358;9.752;2023-02-15T01:08:31;102271.00;;;13.53;41.16
16613;BME280;8419;52.358;9.752;2023-02-15T01:11:19;102274.00;;;13.51;41.18
16613;BME280;8419;52.358;9.752;2023-02-15T01:14:06;102274.00;;;13.52;41.15
16613;BME280;8419;52.358;9.752;2023-02-15T01:16:52;102269.00;;;13.50;41.13
16613;BME280;8419;52.358;9.752;2023-02-15T01:19:38;102268.00;;;13.53;41.13
16613;BME280;8419;52.358;9.752;2023-02-15T01:22:23;102268.00;;;13.56;41.05
16613;BME280;8419;52.358;9.752;2023-02-15T01:25:09;102267.00;;;13.54;41.08
16613;BME280;8419;52.358;9.752;2023-02-15T01:27:55;102263.00;;;13.50;41.19
16613;BME280;8419;52.358;9.752;2023-02-15T01:30:40;102257.00;;;13.51;41.15
16613;BME280;8419;52.358;9.752;2023-02-15T01:33:26;102259.00;;;13.46;41.23
16613;BME280;8419;52.358;9.752;2023-02-15T01:36:12;102255.00;;;13.44;41.24
16613;BME280;8419;52.358;9.752;2023-02-15T01:38:57;102257.00;;;13.38;41.31
16613;BME280;8419;52.358;9.752;2023-02-15T01:41:43;102259.00;;;13.39;41.19
16613;BME280;8419;52.358;9.752;2023-02-15T01:44:49;102256.00;;;13.39;41.14
16613;BME280;8419;52.358;9.752;2023-02-15T01:47:38;102249.00;;;13.34;41.14
16613;BME280;8419;52.358;9.752;2023-02-15T01:50:29;102254.00;;;13.23;41.25
16613;BME280;8419;52.358;9.752;2023-02-15T01:53:21;102243.00;;;13.21;41.24
16613;BME280;8419;52.358;9.752;2023-02-15T01:56:12;102250.00;;;13.17;41.26
16613;BME280;8419;52.358;9.752;2023-02-15T01:59:04;102248.00;;;13.15;41.27
16613;BME280;8419;52.358;9.752;2023-02-15T02:01:52;102240.00;;;13.07;41.40
16613;BME280;8419;52.358;9.752;2023-02-15T02:04:43;102235.00;;;13.09;41.33
16613;BME280;8419;52.358;9.752;2023-02-15T02:07:34;102237.00;;;13.05;41.36
16613;BME280;8419;52.358;9.752;2023-02-15T02:10:23;102234.00;;;13.00;41.42
16613;BME280;8419;52.358;9.752;2023-02-15T02:13:09;102232.00;;;12.99;41.43
16613;BME280;8419;52.358;9.752;2023-02-15T02:16:00;102223.00;;;12.95;41.44
16613;BME280;8419;52.358;9.752;2023-02-15T02:18:53;102227.00;;;12.96;41.43
16613;BME280;8419;52.358;9.752;2023-02-15T02:22:08;102221.00;;;12.94;41.44
16613;BME280;8419;52.358;9.752;2023-02-15T02:25:16;102215.00;;;12.98;41.42
16613;BME280;8419;52.358;9.752;2023-02-15T02:28:21;102212.00;;;12.96;41.32
16613;BME280;8419;52.358;9.752;2023-02-15T02:31:37;102205.00;;;12.93;41.43
16613;BME280;8419;52.358;9.752;2023-02-15T02:34:31;102204.00;;;12.96;41.32
16613;BME280;8419;52.358;9.752;2023-02-15T02:37:24;102199.00;;;12.95;41.29
16613;BME280;8419;52.358;9.752;2023-02-15T02:40:18;102198.00;;;12.93;41.32
16613;BME280;8419;52.358;9.752;2023-02-15T02:43:11;102201.00;;;12.87;41.43
16613;BME280;8419;52.358;9.752;2023-02-15T02:46:05;102194.00;;;12.89;41.40
16613;BME280;8419;52.358;9.752;2023-02-15T02:48:53;102193.00;;;12.92;41.31
16613;BME280;8419;52.358;9.752;2023-02-15T02:51:39;102187.00;;;12.88;41.38
16613;BME280;8419;52.358;9.752;2023-02-15T02:54:24;102192.00;;;12.88;41.41
16613;BME280;8419;52.358;9.752;2023-02-15T02:57:12;102185.00;;;12.87;41.37
16613;BME280;8419;52.358;9.752;2023-02-15T02:59:59;102185.00;;;12.93;41.24
16613;BME280;8419;52.358;9.752;2023-02-15T03:02:50;102187.00;;;12.88;41.38
16613;BME280;8419;52.358;9.752;2023-02-15T03:05:43;102173.00;;;12.89;41.39
16613;BME280;8419;52.358;9.752;2023-02-15T03:08:36;102174.00;;;12.84;41.50
16613;BME280;8419;52.358;9.752;2023-02-15T03:11:23;102176.00;;;12.88;41.44
16613;BME280;8419;52.358;9.752;2023-02-15T03:14:10;102180.00;;;13.03;41.06
16613;BME280;8419;52.358;9.752;2023-02-15T03:16:59;102171.00;;;12.91;41.29
16613;BME280;8419;52.358;9.752;2023-02-15T03:19:47;102168.00;;;12.80;41.46
16613;BME280;8419;52.358;9.752;2023-02-15T03:22:37;102163.00;;;12.71;41.65
16613;BME280;8419;52.358;9.752;2023-02-15T03:25:26;102159.00;;;12.76;41.62
16613;BME280;8419;52.358;9.752;2023-02-15T03:28:15;102163.00;;;12.71;41.64
16613;BME280;8419;52.358;9.752;2023-02-15T03:31:05;102155.00;;;12.71;41.59
16613;BME280;8419;52.358;9.752;2023-02-15T03:33:55;102158.00;;;12.70;41.62
16613;BME280;8419;52.358;9.752;2023-02-15T03:36:46;102152.00;;;12.77;41.47
16613;BME280;8419;52.358;9.752;2023-02-15T03:39:35;102147.00;;;12.74;41.45
16613;BME280;8419;52.358;9.752;2023-02-15T03:42:26;102147.00;;;12.68;41.56
16613;BME280;8419;52.358;9.752;2023-02-15T03:45:19;102149.00;;;12.66;41.55
16613;BME280;8419;52.358;9.752;2023-02-15T03:48:07;102145.00;;;12.60;41.62
16613;BME280;8419;52.358;9.752;2023-02-15T03:50:56;102146.00;;;12.59;41.59
16613;BME280;8419;52.358;9.752;2023-02-15T03:54:06;102149.00;;;12.61;41.58
16613;BME280;8419;52.358;9.752;2023-02-15T03:56:55;102152.00;;;12.55;41.58
16613;BME280;8419;52.358;9.752;2023-02-15T04:00:00;102156.00;;;12.50;41.64
16613;BME280;8419;52.358;9.752;2023-02-15T04:03:23;102158.00;;;12.48;41.63
16613;BME280;8419;52.358;9.752;2023-02-15T04:06:13;102159.00;;;12.56;41.50
16613;BME280;8419;52.358;9.752;2023-02-15T04:08:59;102154.00;;;12.56;41.44
16613;BME280;8419;52.358;9.752;2023-02-15T04:12:04;102144.00;;;12.48;41.55
16613;BME280;8419;52.358;9.752;2023-02-15T04:14:49;102149.00;;;12.47;41.50
16613;BME280;8419;52.358;9.752;2023-02-15T04:17:53;102142.00;;;12.40;41.64
16613;BME280;8419;52.358;9.752;2023-02-15T04:20:40;102144.00;;;12.52;41.34
16613;BME280;8419;52.358;9.752;2023-02-15T04:23:46;102143.00;;;12.47;41.38
16613;BME280;8419;52.358;9.752;2023-02-15T04:26:51;102135.00;;;12.39;41.46
16613;BME280;8419;52.358;9.752;2023-02-15T04:29:37;102131.00;;;12.31;41.63
16613;BME280;8419;52.358;9.752;2023-02-15T04:32:23;102141.00;;;12.30;41.66
16613;BME280;8419;52.358;9.752;2023-02-15T04:35:09;102130.00;;;12.38;41.49
16613;BME280;8419;52.358;9.752;2023-02-15T04:37:54;102134.00;;;12.41;41.39
16613;BME280;8419;52.358;9.752;2023-02-15T04:40:40;102133.00;;;12.33;41.50
16613;BME280;8419;52.358;9.752;2023-02-15T04:43:26;102136.00;;;12.30;41.55
16613;BME280;8419;52.358;9.752;2023-02-15T04:46:11;102139.00;;;12.25;41.61
16613;BME280;8419;52.358;9.752;2023-02-15T04:48:57;102137.00;;;12.28;41.52
16613;BME280;8419;52.358;9.752;2023-02-15T04:51:42;102126.00;;;12.21;41.56
16613;BME280;8419;52.358;9.752;2023-02-15T04:54:28;102122.00;;;12.22;41.51
16613;BME280;8419;52.358;9.752;2023-02-15T04:57:13;102126.00;;;12.18;41.57
16613;BME280;8419;52.358;9.752;2023-02-15T04:59:59;102115.00;;;12.26;41.36
16613;BME280;8419;52.358;9.752;2023-02-15T05:02:47;102114.00;;;12.33;41.21
16613;BME280;8419;52.358;9.752;2023-02-15T05:05:32;102107.00;;;12.29;41.20
16613;BME280;8419;52.358;9.752;2023-02-15T05:08:18;102105.00;;;12.26;41.22
16613;BME280;8419;52.358;9.752;2023-02-15T05:11:03;102107.00;;;12.16;41.42
16613;BME280;8419;52.358;9.752;2023-02-15T05:13:49;102108.00;;;12.09;41.57
16613;BME280;8419;52.358;9.752;2023-02-15T05:16:35;102104.00;;;12.10;41.51
16613;BME280;8419;52.358;9.752;2023-02-15T05:19:21;102114.00;;;12.05;41.56
16613;BME280;8419;52.358;9.752;2023-02-15T05:22:09;102111.00;;;12.02;41.59
16613;BME280;8419;52.358;9.752;2023-02-15T05:24:55;102121.00;;;12.03;41.58
16613;BME280;8419;52.358;9.752;2023-02-15T05:27:59;102111.00;;;12.04;41.55
16613;BME280;8419;52.358;9.752;2023-02-15T05:31:07;102116.00;;;12.09;41.40
16613;BME280;8419;52.358;9.752;2023-02-15T05:33:53;102113.00;;;12.15;41.31
16613;BME280;8419;52.358;9.752;2023-02-15T05:36:39;102109.00;;;12.13;41.36
16613;BME280;8419;52.358;9.752;2023-02-15T05:39:24;102115.00;;;12.15;41.36
16613;BME280;8419;52.358;9.752;2023-02-15T05:42:10;102111.00;;;12.08;41.46
16613;BME280;8419;52.358;9.752;2023-02-15T05:44:55;102109.00;;;12.11;41.48
16613;BME280;8419;52.358;9.752;2023-02-15T05:47:41;102094.00;;;12.18;41.26
16613;BME280;8419;52.358;9.752;2023-02-15T05:50:27;102098.00;;;12.17;41.30
16613;BME280;8419;52.358;9.752;2023-02-15T05:53:13;102096.00;;;12.07;41.45
16613;BME280;8419;52.358;9.752;2023-02-15T05:55:59;102091.00;;;12.07;41.42
16613;BME280;8419;52.358;9.752;2023-02-15T05:58:45;102094.00;;;12.06;41.44
16613;BME280;8419;52.358;9.752;2023-02-15T06:01:30;102090.00;;;12.04;41.45
16613;BME280;8419;52.358;9.752;2023-02-15T06:04:16;102091.00;;;12.01;41.48
16613;BME280;8419;52.358;9.752;2023-02-15T06:07:01;102095.00;;;12.05;41.37
16613;BME280;8419;52.358;9.752;2023-02-15T06:09:47;102096.00;;;12.04;41.40
16613;BME280;8419;52.358;9.752;2023-02-15T06:12:33;102095.00;;;12.00;41.44
16613;BME280;8419;52.358;9.752;2023-02-15T06:15:18;102092.00;;;11.97;41.50
16613;BME280;8419;52.358;9.752;2023-02-15T06:18:04;102100.00;;;12.00;41.45
16613;BME280;8419;52.358;9.752;2023-02-15T06:20:50;102099.00;;;11.98;41.44
16613;BME280;8419;52.358;9.752;2023-02-15T06:23:35;102100.00;;;12.00;41.35
16613;BME280;8419;52.358;9.752;2023-02-15T06:26:21;102094.00;;;11.95;41.40
16613;BME280;8419;52.358;9.752;2023-02-15T06:29:08;102103.00;;;11.93;41.42
16613;BME280;8419;52.358;9.752;2023-02-15T06:31:53;102102.00;;;11.93;41.37
16613;BME280;8419;52.358;9.752;2023-02-15T06:34:39;102095.00;;;11.85;41.50
16613;BME280;8419;52.358;9.752;2023-02-15T06:37:25;102098.00;;;11.84;41.48
16613;BME280;8419;52.358;9.752;2023-02-15T06:40:12;102085.00;;;11.79;41.53
16613;BME280;8419;52.358;9.752;2023-02-15T06:42:57;102090.00;;;11.84;41.43
16613;BME280;8419;52.358;9.752;2023-02-15T06:45:43;102082.00;;;11.80;41.43
16613;BME280;8419;52.358;9.752;2023-02-15T06:48:29;102083.00;;;11.81;41.41
16613;BME280;8419;52.358;9.752;2023-02-15T06:51:14;102079.00;;;11.81;41.37
16613;BME280;8419;52.358;9.752;2023-02-15T06:54:00;102074.00;;;11.85;41.27
16613;BME280;8419;52.358;9.752;2023-02-15T06:56:48;102079.00;;;11.85;41.25
16613;BME280;8419;52.358;9.752;2023-02-15T06:59:34;102091.00;;;11.79;41.32
16613;BME280;8419;52.358;9.752;2023-02-15T07:02:20;102089.00;;;11.81;41.26
16613;BME280;8419;52.358;9.752;2023-02-15T07:05:08;102089.00;;;11.81;41.25
16613;BME280;8419;52.358;9.752;2023-02-15T07:07:54;102086.00;;;11.83;41.22
16613;BME280;8419;52.358;9.752;2023-02-15T07:10:39;102086.00;;;11.79;41.26
16613;BME280;8419;52.358;9.752;2023-02-15T07:13:28;102087.00;;;11.95;40.92
16613;BME280;8419;52.358;9.752;2023-02-15T07:16:14;102089.00;;;11.85;41.12
16613;BME280;8419;52.358;9.752;2023-02-15T07:19:00;102081.00;;;11.83;41.19
16613;BME280;8419;52.358;9.752;2023-02-15T07:21:45;102081.00;;;11.83;41.18
16613;BME280;8419;52.358;9.752;2023-02-15T07:24:31;102077.00;;;11.90;41.06
16613;BME280;8419;52.358;9.752;2023-02-15T07:27:16;102082.00;;;11.90;41.06
16613;BME280;8419;52.358;9.752;2023-02-15T07:30:03;102085.00;;;11.97;40.91
16613;BME280;8419;52.358;9.752;2023-02-15T07:32:49;102080.00;;;12.04;40.77
16613;BME280;8419;52.358;9.752;2023-02-15T07:35:55;102082.00;;;12.08;40.65
16613;BME280;8419;52.358;9.752;2023-02-15T07:38:42;102082.00;;;12.08;40.63
16613;BME280;8419;52.358;9.752;2023-02-15T07:45:00;102088.00;;;12.04;41.22
16613;BME280;8419;52.358;9.752;2023-02-15T07:47:46;102096.00;;;11.95;41.21
16613;BME280;8419;52.358;9.752;2023-02-15T07:50:35;102097.00;;;12.01;41.11
16613;BME280;8419;52.358;9.752;2023-02-15T07:53:20;102091.00;;;12.04;41.07
16613;BME280;8419;52.358;9.752;2023-02-15T07:56:09;102085.00;;;12.20;40.79
16613;BME280;8419;52.358;9.752;2023-02-15T07:58:55;102083.00;;;12.41;40.46
16613;BME280;8419;52.358;9.752;2023-02-15T08:01:43;102083.00;;;12.36;40.59
16613;BME280;8419;52.358;9.752;2023-02-15T08:04:28;102086.00;;;12.40;40.61
16613;BME280;8419;52.358;9.752;2023-02-15T08:07:16;102078.00;;;12.43;40.58
16613;BME280;8419;52.358;9.752;2023-02-15T08:10:02;102071.00;;;12.57;40.35
16613;BME280;8419;52.358;9.752;2023-02-15T08:12:48;102064.00;;;12.63;40.27
16613;BME280;8419;52.358;9.752;2023-02-15T08:15:33;102058.00;;;12.66;40.27
16613;BME280;8419;52.358;9.752;2023-02-15T08:18:19;102062.00;;;12.77;40.08
16613;BME280;8419;52.358;9.752;2023-02-15T08:21:04;102057.00;;;12.66;40.25
16613;BME280;8419;52.358;9.752;2023-02-15T08:23:51;102057.00;;;12.74;40.33
16613;BME280;8419;52.358;9.752;2023-02-15T08:26:38;102056.00;;;12.80;40.27
16613;BME280;8419;52.358;9.752;2023-02-15T08:29:25;102052.00;;;12.90;40.10
16613;BME280;8419;52.358;9.752;2023-02-15T08:32:12;102059.00;;;13.05;39.83
16613;BME280;8419;52.358;9.752;2023-02-15T08:35:02;102045.00;;;13.05;39.91
16613;BME280;8419;52.358;9.752;2023-02-15T08:37:47;102041.00;;;13.13;39.88
16613;BME280;8419;52.358;9.752;2023-02-15T08:40:35;102045.00;;;13.12;39.91
16613;BME280;8419;52.358;9.752;2023-02-15T08:43:23;102042.00;;;13.15;39.92
16613;BME280;8419;52.358;9.752;2023-02-15T08:46:10;102037.00;;;13.20;39.94
16613;BME280;8419;52.358;9.752;2023-02-15T08:48:56;102040.00;;;13.06;40.26
16613;BME280;8419;52.358;9.752;2023-02-15T08:51:42;102035.00;;;13.08;40.28
16613;BME280;8419;52.358;9.752;2023-02-15T08:54:28;102035.00;;;13.11;40.25
16613;BME280;8419;52.358;9.752;2023-02-15T08:57:14;102037.00;;;13.17;40.09
16613;BME280;8419;52.358;9.752;2023-02-15T08:59:59;102035.00;;;13.14;40.12
16613;BME280;8419;52.358;9.752;2023-02-15T09:02:45;102036.00;;;13.12;40.13
16613;BME280;8419;52.358;9.752;2023-02-15T09:05:30;102037.00;;;13.14;40.15
16613;BME280;8419;52.358;9.752;2023-02-15T09:08:16;102040.00;;;13.14;40.18
16613;BME280;8419;52.358;9.752;2023-02-15T09:11:07;102036.00;;;13.12;40.19
16613;BME280;8419;52.358;9.752;2023-02-15T09:13:58;102027.00;;;13.12;40.16
16613;BME280;8419;52.358;9.752;2023-02-15T09:16:45;102027.00;;;13.13;40.18
16613;BME280;8419;52.358;9.752;2023-02-15T09:19:33;102039.00;;;13.23;40.06
16613;BME280;8419;52.358;9.752;2023-02-15T09:22:18;102033.00;;;13.33;39.88
16613;BME280;8419;52.358;9.752;2023-02-15T09:25:05;102032.00;;;13.37;39.85
16613;BME280;8419;52.358;9.752;2023-02-15T09:27:50;102038.00;;;13.40;39.79
16613;BME280;8419;52.358;9.752;2023-02-15T09:30:36;102041.00;;;13.36;39.87
16613;BME280;8419;52.358;9.752;2023-02-15T09:33:21;102035.00;;;13.40;39.93
16613;BME280;8419;52.358;9.752;2023-02-15T09:36:16;102036.00;;;13.52;39.82
16613;BME280;8419;52.358;9.752;2023-02-15T09:39:08;102034.00;;;13.71;39.55
16613;BME280;8419;52.358;9.752;2023-02-15T09:42:28;102019.00;;;13.86;39.39
16613;BME280;8419;52.358;9.752;2023-02-15T09:45:26;102028.00;;;13.92;39.25
16613;BME280;8419;52.358;9.752;2023-02-15T09:48:25;102028.00;;;13.78;39.39
16613;BME280;8419;52.358;9.752;2023-02-15T09:51:32;102024.00;;;13.83;39.45
16613;BME280;8419;52.358;9.752;2023-02-15T09:54:29;102036.00;;;13.95;39.33
16613;BME280;8419;52.358;9.752;2023-02-15T09:57:25;102037.00;;;14.04;39.22
16613;BME280;8419;52.358;9.752;2023-02-15T10:00:24;102025.00;;;14.17;39.00
16613;BME280;8419;52.358;9.752;2023-02-15T10:03:28;102024.00;;;14.23;38.88
16613;BME280;8419;52.358;9.752;2023-02-15T10:06:38;102030.00;;;14.27;38.93
16613;BME280;8419;52.358;9.752;2023-02-15T10:09:36;102023.00;;;14.32;38.96
16613;BME280;8419;52.358;9.752;2023-02-15T10:12:37;102027.00;;;14.38;38.84
16613;BME280;8419;52.358;9.752;2023-02-15T10:15:34;102022.00;;;14.51;38.79
16613;BME280;8419;52.358;9.752;2023-02-15T10:18:45;102019.00;;;14.68;38.52
16613;BME280;8419;52.358;9.752;2023-02-15T10:21:48;102025.00;;;14.78;38.47
16613;BME280;8419;52.358;9.752;2023-02-15T10:25:00;102026.00;;;14.77;38.62
16613;BME280;8419;52.358;9.752;2023-02-15T10:27:52;102025.00;;;14.87;38.58
16613;BME280;8419;52.358;9.752;2023-02-15T10:30:43;102018.00;;;14.97;38.46
16613;BME280;8419;52.358;9.752;2023-02-15T10:33:39;102015.00;;;14.89;38.77
16613;BME280;8419;52.358;9.752;2023-02-15T10:36:38;102017.00;;;15.08;38.62
16613;BME280;8419;52.358;9.752;2023-02-15T10:39:36;102016.00;;;15.27;38.49
16613;BME280;8419;52.358;9.752;2023-02-15T10:42:30;102017.00;;;15.40;38.14
16613;BME280;8419;52.358;9.752;2023-02-15T10:45:27;102012.00;;;15.44;38.07
16613;BME280;8419;52.358;9.752;2023-02-15T10:48:41;102018.00;;;15.57;37.94
16613;BME280;8419;52.358;9.752;2023-02-15T10:51:42;102003.00;;;15.64;38.03
16613;BME280;8419;52.358;9.752;2023-02-15T10:54:37;102008.00;;;15.71;37.98
16613;BME280;8419;52.358;9.752;2023-02-15T10:57:30;102000.00;;;15.84;37.76
16613;BME280;8419;52.358;9.752;2023-02-15T11:00:23;102002.00;;;15.66;38.13
16613;BME280;8419;52.358;9.752;2023-02-15T11:03:25;102004.00;;;15.64;38.09
16613;BME280;8419;52.358;9.752;2023-02-15T11:06:16;102002.00;;;15.96;37.45
16613;BME280;8419;52.358;9.752;2023-02-15T11:09:08;102004.00;;;15.98;37.40
16613;BME280;8419;52.358;9.752;2023-02-15T11:11:56;102000.00;;;16.01;37.50
16613;BME280;8419;52.358;9.752;2023-02-15T11:14:48;101994.00;;;16.09;37.36
16613;BME280;8419;52.358;9.752;2023-02-15T11:17:39;101996.00;;;16.02;37.54
16613;BME280;8419;52.358;9.752;2023-02-15T11:20:29;101987.00;;;16.26;37.22
16613;BME280;8419;52.358;9.752;2023-02-15T11:23:17;101988.00;;;16.41;37.08
16613;BME280;8419;52.358;9.752;2023-02-15T11:26:09;101983.00;;;16.65;36.81
16613;BME280;8419;52.358;9.752;2023-02-15T11:29:01;101988.00;;;16.74;36.63
16613;BME280;8419;52.358;9.752;2023-02-15T11:31:51;101988.00;;;16.83;36.55
16613;BME280;8419;52.358;9.752;2023-02-15T11:34:45;101974.00;;;16.94;36.41
16613;BME280;8419;52.358;9.752;2023-02-15T11:37:39;101969.00;;;16.94;36.43
16613;BME280;8419;52.358;9.752;2023-02-15T11:40:30;101972.00;;;17.15;36.16
16613;BME280;8419;52.358;9.752;2023-02-15T11:43:21;101972.00;;;17.18;36.20
16613;BME280;8419;52.358;9.752;2023-02-15T11:46:12;101964.00;;;17.42;35.74
16613;BME280;8419;52.358;9.752;2023-02-15T11:48:58;101966.00;;;17.52;35.56
16613;BME280;8419;52.358;9.752;2023-02-15T11:51:43;101970.00;;;17.40;35.90
16613;BME280;8419;52.358;9.752;2023-02-15T11:54:30;101972.00;;;17.46;35.93
16613;BME280;8419;52.358;9.752;2023-02-15T11:57:19;101952.00;;;17.91;35.29
16613;BME280;8419;52.358;9.752;2023-02-15T12:00:14;101948.00;;;18.25;34.95
16613;BME280;8419;52.358;9.752;2023-02-15T12:03:12;101956.00;;;18.24;35.04
16613;BME280;8419;52.358;9.752;2023-02-15T12:06:03;101951.00;;;18.38;34.82
16613;BME280;8419;52.358;9.752;2023-02-15T12:08:55;101948.00;;;18.52;34.76
16613;BME280;8419;52.358;9.752;2023-02-15T12:11:41;101951.00;;;18.71;34.54
16613;BME280;8419;52.358;9.752;2023-02-15T12:14:47;101942.00;;;18.89;34.31
16613;BME280;8419;52.358;9.752;2023-02-15T12:17:39;101939.00;;;19.08;34.25
16613;BME280;8419;52.358;9.752;2023-02-15T12:20:30;101947.00;;;19.21;34.08
16613;BME280;8419;52.358;9.752;2023-02-15T12:23:17;101941.00;;;19.39;33.89
16613;BME280;8419;52.358;9.752;2023-02-15T12:26:04;101945.00;;;19.54;33.69
16613;BME280;8419;52.358;9.752;2023-02-15T12:28:51;101939.00;;;19.66;33.64
16613;BME280;8419;52.358;9.752;2023-02-15T12:31:43;101943.00;;;19.96;33.29
16613;BME280;8419;52.358;9.752;2023-02-15T12:34:32;101948.00;;;20.22;32.91
16613;BME280;8419;52.358;9.752;2023-02-15T12:37:23;101936.00;;;20.47;32.71
16613;BME280;8419;52.358;9.752;2023-02-15T12:40:21;101936.00;;;20.66;32.54
16613;BME280;8419;52.358;9.752;2023-02-15T12:43:26;101933.00;;;20.94;32.26
16613;BME280;8419;52.358;9.752;2023-02-15T12:46:21;101921.00;;;21.16;31.98
16613;BME280;8419;52.358;9.752;2023-02-15T12:49:16;101916.00;;;21.21;31.72
16613;BME280;8419;52.358;9.752;2023-02-15T12:52:05;101915.00;;;21.36;31.48
16613;BME280;8419;52.358;9.752;2023-02-15T12:54:53;101920.00;;;21.49;31.27
16613;BME280;8419;52.358;9.752;2023-02-15T12:57:38;101921.00;;;21.62;30.90
16613;BME280;8419;52.358;9.752;2023-02-15T13:00:30;101923.00;;;22.04;30.51
16613;BME280;8419;52.358;9.752;2023-02-15T13:03:19;101916.00;;;22.34;30.23
16613;BME280;8419;52.358;9.752;2023-02-15T13:06:06;101912.00;;;22.68;29.90
16613;BME280;8419;52.358;9.752;2023-02-15T13:08:54;101917.00;;;22.90;29.61
16613;BME280;8419;52.358;9.752;2023-02-15T13:11:42;101917.00;;;23.00;29.50
16613;BME280;8419;52.358;9.752;2023-02-15T13:14:31;101901.00;;;23.25;29.17
16613;BME280;8419;52.358;9.752;2023-02-15T13:17:23;101901.00;;;23.51;28.84
16613;BME280;8419;52.358;9.752;2023-02-15T13:20:19;101884.00;;;23.76;28.54
16613;BME280;8419;52.358;9.752;2023-02-15T13:23:20;101890.00;;;23.99;28.35
16613;BME280;8419;52.358;9.752;2023-02-15T13:26:10;101888.00;;;24.07;28.09
16613;BME280;8419;52.358;9.752;2023-02-15T13:29:00;101886.00;;;24.15;27.85
16613;BME280;8419;52.358;9.752;2023-02-15T13:31:51;101882.00;;;23.99;27.99
16613;BME280;8419;52.358;9.752;2023-02-15T13:34:39;101871.00;;;23.78;27.99
16613;BME280;8419;52.358;9.752;2023-02-15T13:40:48;101866.00;;;23.62;28.25
16613;BME280;8419;52.358;9.752;2023-02-15T13:43:43;101858.00;;;23.62;28.17
16613;BME280;8419;52.358;9.752;2023-02-15T13:46:43;101853.00;;;23.67;28.03
16613;BME280;8419;52.358;9.752;2023-02-15T13:49:42;101854.00;;;23.92;27.77
16613;BME280;8419;52.358;9.752;2023-02-15T13:52:34;101854.00;;;24.44;27.24
16613;BME280;8419;52.358;9.752;2023-02-15T13:55:52;101841.00;;;24.61;27.05
16613;BME280;8419;52.358;9.752;2023-02-15T13:59:01;101846.00;;;24.72;26.90
16613;BME280;8419;52.358;9.752;2023-02-15T14:01:56;101846.00;;;24.69;26.91
16613;BME280;8419;52.358;9.752;2023-02-15T14:05:14;101853.00;;;24.31;27.16
16613;BME280;8419;52.358;9.752;2023-02-15T14:08:12;101845.00;;;24.36;27.18
16613;BME280;8419;52.358;9.752;2023-02-15T14:11:07;101842.00;;;24.12;27.30
16613;BME280;8419;52.358;9.752;2023-02-15T14:14:23;101839.00;;;23.88;27.40
16613;BME280;8419;52.358;9.752;2023-02-15T14:17:22;101837.00;;;23.45;27.86
16613;BME280;8419;52.358;9.752;2023-02-15T14:20:19;101840.00;;;23.16;27.98
16613;BME280;8419;52.358;9.752;2023-02-15T14:23:14;101835.00;;;22.78;28.35
16613;BME280;8419;52.358;9.752;2023-02-15T14:26:09;101835.00;;;22.51;28.54
16613;BME280;8419;52.358;9.752;2023-02-15T14:29:02;101835.00;;;22.46;28.54
16613;BME280;8419;52.358;9.752;2023-02-15T14:31:55;101832.00;;;22.41;28.43
16613;BME280;8419;52.358;9.752;2023-02-15T14:34:45;101831.00;;;22.22;28.59
16613;BME280;8419;52.358;9.752;2023-02-15T14:37:43;101826.00;;;22.41;28.32
16613;BME280;8419;52.358;9.752;2023-02-15T14:40:38;101831.00;;;22.50;28.08
16613;BME280;8419;52.358;9.752;2023-02-15T14:43:49;101826.00;;;22.40;28.18
16613;BME280;8419;52.358;9.752;2023-02-15T14:46:44;101829.00;;;22.12;28.34
16613;BME280;8419;52.358;9.752;2023-02-15T14:49:32;101813.00;;;21.77;28.72
16613;BME280;8419;52.358;9.752;2023-02-15T14:52:18;101811.00;;;21.33;29.25
16613;BME280;8419;52.358;9.752;2023-02-15T14:55:07;101810.00;;;21.47;28.97
16613;BME280;8419;52.358;9.752;2023-02-15T14:57:57;101806.00;;;21.48;28.83
16613;BME280;8419;52.358;9.752;2023-02-15T15:00:43;101814.00;;;21.36;28.96
16613;BME280;8419;52.358;9.752;2023-02-15T15:03:28;101812.00;;;21.08;29.29
16613;BME280;8419;52.358;9.752;2023-02-15T15:06:25;101822.00;;;20.98;29.34
16613;BME280;8419;52.358;9.752;2023-02-15T15:09:14;101815.00;;;20.90;29.52
16613;BME280;8419;52.358;9.752;2023-02-15T15:15:34;101810.00;;;20.95;29.49